Time;durP1;ratioP1;P1;durP2;ratioP2;P2;SDS_P1;SDS_P2;PMS_P1;PMS_P2;Temp;Humidity;BMP_temperature;BMP_pressure;BME280_temperature;BME280_humidity;BME280_pressure;Samples;Min_cycle;Max_cycle;Signal;HPM_P1;HPM_P2
2020/12/06 00:00:54;;;;;;;25.17;17.70;;;3.30;99.90;;;;;;4971703;28;20505;-75
2020/12/06 00:03:20;;;;;;;27.33;18.08;;;3.30;99.90;;;;;;4971470;28;20038;-76
2020/12/06 00:05:46;;;;;;;27.90;18.90;;;3.40;99.90;;;;;;4986534;28;20031;-76
2020/12/06 00:08:11;;;;;;;28.45;18.70;;;3.30;99.90;;;;;;4971409;28;20031;-75
2020/12/06 00:10:37;;;;;;;26.17;17.02;;;3.20;99.90;;;;;;4986067;28;20029;-76
2020/12/06 00:13:03;;;;;;;26.35;16.02;;;3.50;99.90;;;;;;4971673;28;20466;-76
2020/12/06 00:15:29;;;;;;;27.30;17.25;;;3.70;99.90;;;;;;4971225;28;20027;-76
2020/12/06 00:17:54;;;;;;;26.75;18.02;;;3.80;99.90;;;;;;4971461;28;20034;-75
2020/12/06 00:20:20;;;;;;;30.25;19.33;;;4.00;99.90;;;;;;4970669;28;20034;-77
2020/12/06 00:22:46;;;;;;;32.20;20.35;;;4.00;99.90;;;;;;4970809;28;20107;-76
2020/12/06 00:25:11;;;;;;;29.45;19.25;;;3.90;99.90;;;;;;4985734;28;20023;-75
2020/12/06 00:27:38;;;;;;;33.28;19.10;;;3.60;99.90;;;;;;4985771;28;20166;-76
2020/12/06 00:30:06;;;;;;;33.03;20.98;;;3.40;99.90;;;;;;4971224;28;20019;-75
2020/12/06 00:32:32;;;;;;;34.60;20.70;;;3.10;99.90;;;;;;4971139;28;20390;-76
2020/12/06 00:34:57;;;;;;;32.25;20.30;;;3.20;99.90;;;;;;4970299;28;20026;-75
2020/12/06 00:37:23;;;;;;;28.08;19.30;;;3.20;99.90;;;;;;4970456;28;20478;-76
2020/12/06 00:39:49;;;;;;;34.33;21.27;;;3.00;99.90;;;;;;4970747;28;20023;-75
2020/12/06 00:42:14;;;;;;;29.75;19.42;;;2.90;99.90;;;;;;4971027;28;20038;-76
2020/12/06 00:44:40;;;;;;;31.77;19.75;;;3.00;99.90;;;;;;4970456;28;20101;-75
2020/12/06 00:47:06;;;;;;;28.88;19.58;;;2.90;99.90;;;;;;4985465;28;20034;-75
2020/12/06 00:49:32;;;;;;;32.58;19.73;;;2.90;99.90;;;;;;4970907;28;20019;-76
2020/12/06 00:51:58;;;;;;;28.55;19.80;;;3.10;99.90;;;;;;4970902;28;20022;-75
2020/12/06 00:54:24;;;;;;;29.05;19.33;;;3.10;99.90;;;;;;4970881;28;20074;-77
2020/12/06 00:56:57;;;;;;;27.33;17.63;;;3.10;99.90;;;;;;4970546;28;20019;-75
2020/12/06 00:59:24;;;;;;;27.35;16.88;;;3.30;99.90;;;;;;4970658;28;20027;-76
2020/12/06 01:01:50;;;;;;;29.25;17.33;;;3.10;99.90;;;;;;4970429;28;20027;-76
2020/12/06 01:04:16;;;;;;;26.08;16.38;;;3.20;99.90;;;;;;4970193;28;20506;-76
2020/12/06 01:06:42;;;;;;;25.88;16.05;;;3.10;99.90;;;;;;4970427;28;20038;-74
2020/12/06 01:09:07;;;;;;;28.17;16.95;;;3.30;99.90;;;;;;4970856;28;20031;-76
2020/12/06 01:11:33;;;;;;;25.13;15.80;;;3.20;99.90;;;;;;4970954;28;20520;-75
2020/12/06 01:13:59;;;;;;;20.35;13.82;;;3.30;99.90;;;;;;4970835;28;20042;-76
2020/12/06 01:16:25;;;;;;;21.98;14.88;;;3.50;99.90;;;;;;4970443;28;20031;-76
2020/12/06 01:18:50;;;;;;;21.08;14.55;;;3.70;99.90;;;;;;4970866;28;20392;-76
2020/12/06 01:21:16;;;;;;;19.98;14.00;;;3.90;99.90;;;;;;4970711;28;20023;-76
2020/12/06 01:23:42;;;;;;;20.42;14.00;;;4.00;99.90;;;;;;4970577;28;20042;-75
2020/12/06 01:26:13;;;;;;;22.20;14.45;;;3.80;99.90;;;;;;4969992;28;20038;-77
2020/12/06 01:28:39;;;;;;;20.17;14.20;;;3.90;99.90;;;;;;4985485;28;20060;-76
2020/12/06 01:31:08;;;;;;;22.20;14.95;;;4.00;99.90;;;;;;4969728;28;20118;-77
2020/12/06 01:33:34;;;;;;;25.55;15.80;;;4.00;99.90;;;;;;4970164;28;20053;-74
2020/12/06 01:36:00;;;;;;;26.55;16.98;;;3.70;99.90;;;;;;4985740;28;20026;-77
2020/12/06 01:38:26;;;;;;;28.10;17.25;;;3.30;99.90;;;;;;4969497;28;20039;-77
2020/12/06 01:40:51;;;;;;;28.77;16.02;;;3.20;99.90;;;;;;4986173;28;20026;-76
2020/12/06 01:43:17;;;;;;;25.35;15.10;;;3.20;99.90;;;;;;4971137;28;20057;-76
2020/12/06 01:45:43;;;;;;;24.27;14.95;;;3.20;99.90;;;;;;4970584;28;20153;-75
2020/12/06 01:48:09;;;;;;;26.02;16.17;;;3.30;99.90;;;;;;4985061;28;20023;-76
2020/12/06 01:50:36;;;;;;;29.60;16.20;;;3.30;99.90;;;;;;4970320;28;20095;-76
2020/12/06 01:53:06;;;;;;;31.00;18.15;;;3.30;99.90;;;;;;4984928;28;20023;-76
2020/12/06 01:55:33;;;;;;;34.40;18.88;;;3.10;99.90;;;;;;4970372;28;20037;-76
2020/12/06 01:58:06;;;;;;;39.05;21.02;;;2.90;99.90;;;;;;4970676;28;20039;-76
2020/12/06 02:00:32;;;;;;;39.67;20.75;;;2.80;99.90;;;;;;4970056;28;20034;-75
2020/12/06 02:03:00;;;;;;;41.42;20.92;;;2.80;99.90;;;;;;4970120;28;20030;-75
2020/12/06 02:05:29;;;;;;;34.13;20.35;;;2.90;99.90;;;;;;4971370;28;20037;-74
2020/12/06 02:07:59;;;;;;;41.75;21.48;;;3.00;99.90;;;;;;4974019;28;20062;-75
2020/12/06 02:10:30;;;;;;;46.65;25.55;;;2.90;99.90;;;;;;4973918;28;20054;-76
2020/12/06 02:12:56;;;;;;;39.47;22.85;;;3.00;99.90;;;;;;4974075;28;20031;-74
2020/12/06 02:15:23;;;;;;;39.38;21.17;;;3.00;99.90;;;;;;4988194;28;20345;-75
2020/12/06 02:17:49;;;;;;;35.35;20.27;;;3.10;99.90;;;;;;4973647;28;20030;-75
2020/12/06 02:20:15;;;;;;;38.85;20.75;;;3.00;99.90;;;;;;4988541;28;20038;-75
2020/12/06 02:22:41;;;;;;;32.15;19.08;;;3.10;99.90;;;;;;4989054;28;20395;-75
2020/12/06 02:25:07;;;;;;;33.25;19.10;;;3.30;99.90;;;;;;4988588;28;20038;-76
2020/12/06 02:27:32;;;;;;;27.23;17.13;;;3.50;99.90;;;;;;4972933;28;20407;-76
2020/12/06 02:29:58;;;;;;;27.38;16.45;;;3.80;99.90;;;;;;4988733;28;20113;-75
2020/12/06 02:32:24;;;;;;;27.52;16.20;;;4.00;99.90;;;;;;4972714;28;20019;-74
2020/12/06 02:34:50;;;;;;;26.42;15.82;;;4.10;99.90;;;;;;4988709;28;20029;-74
2020/12/06 02:37:15;;;;;;;30.80;17.80;;;3.70;99.90;;;;;;4989317;28;20031;-76
2020/12/06 02:39:42;;;;;;;31.38;19.02;;;3.30;99.90;;;;;;4973871;28;20386;-75
2020/12/06 02:42:07;;;;;;;27.80;17.55;;;3.30;99.90;;;;;;4974141;28;20027;-76
2020/12/06 02:44:33;;;;;;;29.60;18.17;;;3.40;99.90;;;;;;4973807;28;20042;-75
2020/12/06 02:46:59;;;;;;;27.40;16.20;;;3.60;99.90;;;;;;4988705;28;20027;-76
2020/12/06 02:49:28;;;;;;;29.52;17.42;;;3.70;99.90;;;;;;4973279;28;20037;-76
2020/12/06 02:51:54;;;;;;;28.02;16.73;;;3.80;99.90;;;;;;4986332;28;20113;-76
2020/12/06 02:54:20;;;;;;;24.00;15.25;;;3.90;99.90;;;;;;4980757;28;20111;-75
2020/12/06 02:56:45;;;;;;;25.27;15.88;;;4.10;99.90;;;;;;4969455;28;20029;-75
2020/12/06 02:59:11;;;;;;;25.35;15.95;;;4.20;99.90;;;;;;4973331;28;20019;-75
2020/12/06 03:01:37;;;;;;;23.17;15.10;;;4.20;99.90;;;;;;4974501;28;20425;-75
2020/12/06 03:04:03;;;;;;;22.67;14.93;;;4.10;99.90;;;;;;4975632;28;20030;-75
2020/12/06 03:06:28;;;;;;;22.20;14.63;;;4.10;99.90;;;;;;4991049;28;20023;-75
2020/12/06 03:08:54;;;;;;;25.63;15.65;;;4.10;99.90;;;;;;4974605;28;20030;-76
2020/12/06 03:11:25;;;;;;;22.52;14.75;;;4.00;99.90;;;;;;4974115;28;20062;-75
2020/12/06 03:13:52;;;;;;;23.00;14.43;;;4.00;99.90;;;;;;4974584;28;20107;-75
2020/12/06 03:16:17;;;;;;;21.25;14.48;;;4.10;99.90;;;;;;4973042;28;20082;-74
2020/12/06 03:18:43;;;;;;;23.42;15.52;;;4.30;99.90;;;;;;4973176;28;20031;-74
2020/12/06 03:21:09;;;;;;;23.15;15.10;;;4.10;99.90;;;;;;4973266;28;20031;-75
2020/12/06 03:23:35;;;;;;;23.85;15.38;;;3.90;99.90;;;;;;4973129;28;20030;-74
2020/12/06 03:26:00;;;;;;;24.30;15.43;;;3.70;99.90;;;;;;4972963;28;20034;-74
2020/12/06 03:28:26;;;;;;;23.98;15.45;;;3.40;99.90;;;;;;4972958;28;20035;-74
2020/12/06 03:30:52;;;;;;;25.75;15.45;;;3.10;99.90;;;;;;4973160;28;20027;-74
2020/12/06 03:33:17;;;;;;;23.45;14.85;;;3.20;99.90;;;;;;4972899;28;20417;-75
2020/12/06 03:35:43;;;;;;;24.42;15.13;;;3.40;99.90;;;;;;4972972;28;20022;-75
2020/12/06 03:38:09;;;;;;;25.13;15.68;;;3.30;99.90;;;;;;4972979;28;20081;-74
2020/12/06 03:40:35;;;;;;;24.52;15.90;;;3.20;99.90;;;;;;4973059;28;20062;-75
2020/12/06 03:43:00;;;;;;;24.40;15.70;;;3.30;99.90;;;;;;4972908;28;20119;-75
2020/12/06 03:45:26;;;;;;;21.45;13.70;;;3.30;99.90;;;;;;4971234;28;20058;-75
2020/12/06 03:47:55;;;;;;;20.48;14.00;;;3.40;99.90;;;;;;4971430;28;20042;-75
2020/12/06 03:50:21;;;;;;;20.65;14.15;;;3.60;99.90;;;;;;4972619;28;20030;-74
2020/12/06 03:52:46;;;;;;;23.10;15.30;;;3.90;99.90;;;;;;4972600;28;20031;-75
2020/12/06 03:55:12;;;;;;;20.90;14.00;;;4.00;99.90;;;;;;4972396;28;20142;-75
2020/12/06 03:57:38;;;;;;;20.65;13.40;;;4.20;99.90;;;;;;4972682;28;20030;-75
2020/12/06 04:00:04;;;;;;;23.00;14.90;;;4.00;99.90;;;;;;4972419;28;20027;-75
2020/12/06 04:02:30;;;;;;;23.95;14.18;;;3.90;99.90;;;;;;4982840;28;20031;-75
2020/12/06 04:04:56;;;;;;;20.85;13.45;;;3.80;99.90;;;;;;4961208;28;20113;-75
2020/12/06 04:07:21;;;;;;;23.23;15.00;;;3.90;99.90;;;;;;4970337;28;20434;-74
2020/12/06 04:09:47;;;;;;;26.00;14.85;;;3.90;99.90;;;;;;4970548;28;20418;-75
2020/12/06 04:12:13;;;;;;;22.80;13.60;;;3.90;99.90;;;;;;4970674;28;20030;-74
2020/12/06 04:14:38;;;;;;;18.80;12.73;;;4.10;99.90;;;;;;4969934;28;20426;-75
2020/12/06 04:17:04;;;;;;;22.33;12.57;;;4.30;99.90;;;;;;4969063;28;20042;-75
2020/12/06 04:19:30;;;;;;;19.98;13.15;;;4.40;99.90;;;;;;4969634;28;20097;-74
2020/12/06 04:21:56;;;;;;;21.15;13.27;;;4.50;99.90;;;;;;4968170;28;20026;-75
2020/12/06 04:24:22;;;;;;;23.40;14.95;;;4.50;99.90;;;;;;4969368;28;20402;-75
2020/12/06 04:26:47;;;;;;;22.10;14.38;;;4.40;99.90;;;;;;4969300;28;20086;-75
2020/12/06 04:29:13;;;;;;;22.55;13.45;;;4.20;99.90;;;;;;4969423;28;20690;-74
2020/12/06 04:31:38;;;;;;;19.70;13.23;;;4.20;99.90;;;;;;4967957;28;20023;-75
2020/12/06 04:34:04;;;;;;;20.80;13.70;;;4.40;99.90;;;;;;4969323;28;20027;-74
2020/12/06 04:36:30;;;;;;;21.63;13.98;;;4.50;99.90;;;;;;4969286;28;20030;-75
2020/12/06 04:38:56;;;;;;;20.77;13.70;;;4.50;99.90;;;;;;4984361;28;20164;-75
2020/12/06 04:41:27;;;;;;;19.55;13.32;;;4.60;99.90;;;;;;4969580;28;20035;-75
2020/12/06 04:43:53;;;;;;;20.88;14.23;;;4.60;99.90;;;;;;4983938;28;20517;-75
2020/12/06 04:46:20;;;;;;;20.23;13.02;;;4.60;99.90;;;;;;4967951;28;20035;-75
2020/12/06 04:49:04;;;;;;;22.90;13.90;;;4.60;99.90;;;;;;4969270;28;20089;-74
2020/12/06 04:51:41;;;;;;;21.63;13.32;;;4.50;99.90;;;;;;4969194;28;20154;-74
2020/12/06 04:54:07;;;;;;;20.63;13.02;;;4.40;99.90;;;;;;4969097;28;20106;-74
2020/12/06 04:56:33;;;;;;;21.00;13.88;;;4.50;99.90;;;;;;4969190;28;20142;-74
2020/12/06 04:59:01;;;;;;;19.20;12.50;;;4.50;99.90;;;;;;4969448;28;20521;-75
2020/12/06 05:01:35;;;;;;;22.80;14.00;;;4.60;99.90;;;;;;4969183;28;20027;-74
2020/12/06 05:04:10;;;;;;;20.83;13.55;;;4.60;99.90;;;;;;4968884;28;20026;-74
2020/12/06 05:06:38;;;;;;;22.30;14.13;;;4.60;99.90;;;;;;4969390;28;20022;-74
2020/12/06 05:09:11;;;;;;;22.17;14.13;;;4.50;99.90;;;;;;4969206;28;20029;-75
2020/12/06 05:11:38;;;;;;;22.23;14.20;;;4.50;99.90;;;;;;4969014;28;20019;-75
2020/12/06 05:14:07;;;;;;;22.83;14.70;;;4.60;99.90;;;;;;4968796;28;20098;-74
2020/12/06 05:16:34;;;;;;;23.00;14.20;;;4.60;99.90;;;;;;4968906;28;20502;-75
2020/12/06 05:19:01;;;;;;;21.75;14.13;;;4.40;99.90;;;;;;4969050;28;20078;-75
2020/12/06 05:21:38;;;;;;;22.17;14.35;;;4.40;99.90;;;;;;4967810;28;20057;-74
2020/12/06 05:24:04;;;;;;;19.90;12.90;;;4.50;99.90;;;;;;4968927;28;20030;-75
2020/12/06 05:26:31;;;;;;;21.55;14.70;;;4.50;99.90;;;;;;4983751;28;20260;-74
2020/12/06 05:28:57;;;;;;;18.35;12.55;;;4.30;99.90;;;;;;4968849;28;20054;-75
2020/12/06 05:31:23;;;;;;;20.08;13.75;;;4.30;99.90;;;;;;4968962;28;20023;-75
2020/12/06 05:33:50;;;;;;;22.23;14.50;;;4.50;99.90;;;;;;4968899;28;20023;-75
2020/12/06 05:36:17;;;;;;;21.25;14.73;;;4.40;99.90;;;;;;4968416;28;20018;-75
2020/12/06 05:38:43;;;;;;;26.38;16.25;;;4.20;99.90;;;;;;4968706;28;20108;-75
2020/12/06 05:41:09;;;;;;;22.80;14.35;;;3.90;99.90;;;;;;4986151;28;20078;-75
2020/12/06 05:43:36;;;;;;;23.50;14.52;;;4.00;99.90;;;;;;4972507;28;20439;-75
2020/12/06 05:46:06;;;;;;;23.35;14.70;;;4.10;99.90;;;;;;4970976;28;20161;-75
2020/12/06 05:48:32;;;;;;;24.10;14.73;;;4.30;99.90;;;;;;4972032;28;20027;-75
2020/12/06 05:50:59;;;;;;;28.23;15.85;;;4.20;99.90;;;;;;4971799;28;20023;-75
2020/12/06 05:53:27;;;;;;;29.00;16.67;;;3.90;99.90;;;;;;4971731;28;20058;-75
2020/12/06 05:56:15;;;;;;;41.30;22.45;;;3.50;99.90;;;;;;4986653;28;20061;-75
2020/12/06 05:58:43;;;;;;;40.45;21.40;;;3.30;99.90;;;;;;4972340;28;20555;-75
2020/12/06 06:01:12;;;;;;;35.33;19.92;;;3.40;99.90;;;;;;4972292;28;20023;-75
2020/12/06 06:03:42;;;;;;;33.08;19.35;;;3.60;99.90;;;;;;4971811;28;20558;-74
2020/12/06 06:06:20;;;;;;;39.22;20.88;;;3.80;99.90;;;;;;4971938;28;20041;-75
2020/12/06 06:08:49;;;;;;;35.83;20.05;;;3.80;99.90;;;;;;4972041;28;20031;-75
2020/12/06 06:11:22;;;;;;;33.90;19.23;;;3.70;99.90;;;;;;4972182;28;20022;-75
2020/12/06 06:14:08;;;;;;;32.70;18.35;;;3.60;99.90;;;;;;4971953;28;20454;-74
2020/12/06 06:16:35;;;;;;;35.58;19.35;;;3.50;99.90;;;;;;4970762;28;20034;-75
2020/12/06 06:19:03;;;;;;;38.10;20.58;;;3.40;99.90;;;;;;4972151;28;20129;-75
2020/12/06 06:21:31;;;;;;;47.85;24.17;;;3.30;99.90;;;;;;4972325;28;20103;-75
2020/12/06 06:23:59;;;;;;;65.05;30.08;;;3.10;99.90;;;;;;4971944;28;20031;-75
2020/12/06 06:26:28;;;;;;;40.78;21.40;;;3.20;99.90;;;;;;4972073;28;20038;-74
2020/12/06 06:28:54;;;;;;;36.78;20.13;;;3.50;99.90;;;;;;4970439;28;20118;-74
2020/12/06 06:31:21;;;;;;;31.15;17.23;;;3.70;99.90;;;;;;4971800;28;20442;-75
2020/12/06 06:33:48;;;;;;;30.23;17.33;;;3.90;99.90;;;;;;4971722;28;20380;-75
2020/12/06 06:36:18;;;;;;;29.67;17.52;;;4.00;99.90;;;;;;4971564;28;20023;-75
2020/12/06 06:38:44;;;;;;;27.92;15.98;;;4.20;99.90;;;;;;4970021;28;20122;-75
2020/12/06 06:41:12;;;;;;;28.67;16.10;;;4.30;99.90;;;;;;4970279;28;20533;-75
2020/12/06 06:43:39;;;;;;;28.15;16.02;;;4.20;99.90;;;;;;4971538;28;20022;-75
2020/12/06 06:46:18;;;;;;;28.55;16.65;;;4.20;99.90;;;;;;4970968;28;20063;-75
2020/12/06 06:48:46;;;;;;;28.58;16.20;;;4.40;99.90;;;;;;4971276;28;20027;-75
2020/12/06 06:51:19;;;;;;;26.85;15.95;;;4.50;99.90;;;;;;4970781;28;20497;-75
2020/12/06 06:53:45;;;;;;;25.80;15.70;;;4.50;99.90;;;;;;4971297;28;20399;-75
2020/12/06 06:56:12;;;;;;;27.15;16.17;;;4.60;99.90;;;;;;4970675;28;20027;-75
2020/12/06 06:58:39;;;;;;;26.77;15.57;;;4.60;99.90;;;;;;4971076;28;20045;-75
2020/12/06 07:01:21;;;;;;;28.60;16.50;;;4.70;99.90;;;;;;4971006;28;20470;-75
2020/12/06 07:03:50;;;;;;;26.20;14.93;;;4.70;99.90;;;;;;4985597;28;20034;-75
2020/12/06 07:06:48;;;;;;;28.33;16.55;;;4.60;99.90;;;;;;4985450;28;20031;-75
2020/12/06 07:09:21;;;;;;;32.50;16.33;;;4.70;99.90;;;;;;4969541;28;20580;-75
2020/12/06 07:11:47;;;;;;;29.33;16.65;;;4.80;99.90;;;;;;4970742;28;20477;-74
2020/12/06 07:14:13;;;;;;;29.08;16.25;;;4.80;99.90;;;;;;4970251;28;20031;-74
2020/12/06 07:16:39;;;;;;;30.75;16.92;;;4.80;99.90;;;;;;4970707;28;20038;-75
2020/12/06 07:19:05;;;;;;;34.42;18.10;;;4.70;99.90;;;;;;4970586;28;20027;-74
2020/12/06 07:21:32;;;;;;;29.38;16.42;;;4.60;99.90;;;;;;4970388;28;20439;-75
2020/12/06 07:23:58;;;;;;;26.80;16.55;;;4.70;99.90;;;;;;4969251;28;20501;-75
2020/12/06 07:26:25;;;;;;;25.95;15.63;;;4.70;99.90;;;;;;4970570;28;20501;-75
2020/12/06 07:28:50;;;;;;;26.90;15.93;;;4.70;99.90;;;;;;4970609;28;20033;-74
2020/12/06 07:31:17;;;;;;;25.13;15.30;;;4.80;99.90;;;;;;4970722;28;20019;-74
2020/12/06 07:33:43;;;;;;;30.05;16.20;;;4.70;99.90;;;;;;4969109;28;20045;-75
2020/12/06 07:36:09;;;;;;;28.35;16.58;;;4.70;99.90;;;;;;4970148;28;20026;-74
2020/12/06 07:38:37;;;;;;;28.48;16.17;;;4.70;99.90;;;;;;4970067;28;20046;-75
2020/12/06 07:41:04;;;;;;;39.63;20.33;;;4.80;99.90;;;;;;4970362;28;20030;-74
2020/12/06 07:43:31;;;;;;;40.30;20.73;;;4.70;99.90;;;;;;4970016;28;20035;-74
2020/12/06 07:45:56;;;;;;;45.33;25.00;;;4.70;99.90;;;;;;4970220;28;20159;-74
2020/12/06 07:48:23;;;;;;;42.15;23.05;;;4.60;99.90;;;;;;4970014;28;20023;-74
2020/12/06 07:50:49;;;;;;;40.78;22.35;;;4.50;99.90;;;;;;4970035;28;20027;-74
2020/12/06 07:53:14;;;;;;;45.35;23.27;;;4.50;99.90;;;;;;4969847;28;20106;-73
2020/12/06 07:55:41;;;;;;;45.33;23.85;;;4.40;99.90;;;;;;4969961;28;20158;-73
2020/12/06 07:58:21;;;;;;;43.30;22.33;;;4.40;99.90;;;;;;4969953;28;20030;-74
2020/12/06 08:00:47;;;;;;;46.38;23.27;;;4.40;99.90;;;;;;4969781;28;20026;-74
2020/12/06 08:03:14;;;;;;;47.20;24.83;;;4.30;99.90;;;;;;4967769;28;20517;-74
2020/12/06 08:05:42;;;;;;;45.17;22.45;;;4.20;99.90;;;;;;4984398;28;20088;-74
2020/12/06 08:08:18;;;;;;;42.55;22.52;;;4.20;99.90;;;;;;4969667;28;20461;-74
2020/12/06 08:10:50;;;;;;;39.13;21.35;;;4.10;99.90;;;;;;4969834;28;20129;-76
2020/12/06 08:13:16;;;;;;;41.08;22.05;;;4.10;99.90;;;;;;4969521;28;20022;-74
2020/12/06 08:15:42;;;;;;;37.88;21.08;;;4.20;99.90;;;;;;4969280;28;20062;-75
2020/12/06 08:18:13;;;;;;;51.53;20.60;;;4.20;99.90;;;;;;4969525;28;20033;-75
2020/12/06 08:20:39;;;;;;;44.72;21.40;;;4.20;99.90;;;;;;4969548;28;20538;-75
2020/12/06 08:23:05;;;;;;;36.78;19.17;;;4.20;99.90;;;;;;4969341;28;20027;-75
2020/12/06 08:25:33;;;;;;;38.00;20.67;;;4.10;99.90;;;;;;4969063;28;20057;-74
2020/12/06 08:28:00;;;;;;;40.92;22.08;;;4.20;99.90;;;;;;4969064;28;20097;-74
2020/12/06 08:30:27;;;;;;;;;;;4.20;99.90;;;;;;4968536;28;20081;-75
2020/12/06 08:33:01;;;;;;;41.17;20.33;;;4.30;99.90;;;;;;4971239;28;20335;-74
2020/12/06 08:35:43;;;;;;;37.78;20.95;;;4.40;99.90;;;;;;4969699;28;20026;-76
2020/12/06 08:38:22;;;;;;;43.45;21.25;;;4.40;99.90;;;;;;4971306;28;20578;-76
2020/12/06 08:41:05;;;;;;;39.78;20.70;;;4.40;99.90;;;;;;4969453;28;20034;-74
2020/12/06 08:44:03;;;;;;;39.75;20.90;;;4.30;99.90;;;;;;4970832;28;20047;-76
2020/12/06 08:46:30;;;;;;;36.90;18.98;;;4.30;99.90;;;;;;4970481;28;20119;-76
2020/12/06 08:49:01;;;;;;;36.83;18.98;;;4.30;99.90;;;;;;4970151;28;20034;-75
2020/12/06 08:51:31;;;;;;;34.10;18.60;;;4.40;99.90;;;;;;4968013;28;20031;-76
2020/12/06 08:53:59;;;;;;;38.47;20.77;;;4.50;99.90;;;;;;4984623;28;20034;-75
2020/12/06 08:56:31;;;;;;;36.00;19.00;;;4.40;99.90;;;;;;4970497;28;20023;-77
2020/12/06 08:59:04;;;;;;;31.40;17.83;;;4.50;99.90;;;;;;4969575;28;20031;-77
2020/12/06 09:01:30;;;;;;;34.10;18.15;;;4.70;99.90;;;;;;4985823;28;20031;-76
2020/12/06 09:03:56;;;;;;;32.92;19.20;;;4.70;99.90;;;;;;4970613;28;20042;-74
2020/12/06 09:06:21;;;;;;;33.08;18.45;;;4.70;99.90;;;;;;4969779;28;20022;-77
2020/12/06 09:08:47;;;;;;;32.25;18.63;;;4.80;99.90;;;;;;4969885;28;20054;-76
2020/12/06 09:11:22;;;;;;;34.47;18.55;;;4.90;99.90;;;;;;4970855;28;20031;-76
2020/12/06 09:13:48;;;;;;;36.67;18.55;;;4.90;99.90;;;;;;4986519;28;20026;-75
2020/12/06 09:16:14;;;;;;;34.38;18.58;;;4.90;99.90;;;;;;4973579;28;20054;-76
2020/12/06 09:18:41;;;;;;;36.55;17.92;;;4.80;99.90;;;;;;4974031;28;20027;-76
2020/12/06 09:21:09;;;;;;;33.95;18.38;;;4.90;99.90;;;;;;4974930;28;20034;-76
2020/12/06 09:23:38;;;;;;;35.75;19.23;;;4.90;99.90;;;;;;4974500;28;20115;-77
2020/12/06 09:26:04;;;;;;;35.63;19.40;;;4.70;99.90;;;;;;4972485;28;20031;-77
2020/12/06 09:28:31;;;;;;;57.53;32.35;;;4.40;99.90;;;;;;4973632;28;20023;-76
2020/12/06 09:30:58;;;;;;;36.13;20.63;;;4.60;99.90;;;;;;4974723;28;20018;-76
2020/12/06 09:33:23;;;;;;;56.38;35.67;;;4.70;99.90;;;;;;4974084;28;20138;-76
2020/12/06 09:35:49;;;;;;;35.20;22.48;;;4.80;99.90;;;;;;4973830;28;20150;-76
2020/12/06 09:38:16;;;;;;;26.48;15.77;;;4.80;99.90;;;;;;4973552;28;20519;-76
2020/12/06 09:40:42;;;;;;;27.90;15.43;;;4.70;99.90;;;;;;4974282;28;20085;-73
2020/12/06 09:43:08;;;;;;;28.15;16.83;;;4.70;99.90;;;;;;4973876;28;20030;-76
2020/12/06 09:45:33;;;;;;;27.35;17.20;;;4.70;99.90;;;;;;4974026;28;20026;-76
2020/12/06 09:47:59;;;;;;;25.13;15.90;;;4.60;99.90;;;;;;4974807;28;20031;-75
2020/12/06 09:50:25;;;;;;;34.38;21.48;;;4.60;99.90;;;;;;4973373;28;20049;-74
2020/12/06 09:52:51;;;;;;;28.90;17.60;;;4.50;99.90;;;;;;4972484;28;20105;-75
2020/12/06 09:55:16;;;;;;;25.67;14.95;;;4.70;99.90;;;;;;4971877;28;20110;-75
2020/12/06 09:57:42;;;;;;;25.58;15.43;;;4.70;99.90;;;;;;4972513;28;20026;-75
2020/12/06 10:00:08;;;;;;;24.38;14.93;;;4.80;99.90;;;;;;4972180;28;20046;-75
2020/12/06 10:02:33;;;;;;;23.42;14.93;;;4.80;99.90;;;;;;4972841;28;20026;-75
2020/12/06 10:04:59;;;;;;;21.42;13.68;;;4.90;99.90;;;;;;4970803;28;20031;-75
2020/12/06 10:07:25;;;;;;;22.33;13.70;;;4.90;99.90;;;;;;4986956;28;20034;-75
2020/12/06 10:09:52;;;;;;;20.70;11.60;;;4.90;99.90;;;;;;4971996;28;20030;-75
2020/12/06 10:12:18;;;;;;;18.27;10.90;;;4.90;99.90;;;;;;4969056;28;20035;-75
2020/12/06 10:14:44;;;;;;;19.95;11.00;;;4.80;99.90;;;;;;4970448;28;20138;-75
2020/12/06 10:17:10;;;;;;;18.00;10.00;;;4.60;99.90;;;;;;4971137;28;20030;-75
2020/12/06 10:19:36;;;;;;;15.77;9.07;;;4.50;99.90;;;;;;4972289;28;20027;-75
2020/12/06 10:22:01;;;;;;;16.08;9.85;;;4.50;99.90;;;;;;4971256;28;20166;-75
2020/12/06 10:24:27;;;;;;;13.52;8.50;;;4.50;99.90;;;;;;4970714;28;20027;-75
2020/12/06 10:26:54;;;;;;;12.73;8.40;;;4.60;99.90;;;;;;4970366;28;20027;-75
2020/12/06 10:29:20;;;;;;;10.23;6.03;;;4.60;99.90;;;;;;4971173;28;20038;-74
2020/12/06 10:31:53;;;;;;;10.10;7.03;;;4.60;99.90;;;;;;4970118;28;20027;-75
2020/12/06 10:34:21;;;;;;;10.30;6.95;;;4.70;99.90;;;;;;4970660;28;20506;-75
2020/12/06 10:36:51;;;;;;;10.60;7.00;;;4.80;99.90;;;;;;4969577;28;20023;-75
2020/12/06 10:39:17;;;;;;;10.07;6.57;;;5.10;99.90;;;;;;4971463;28;20065;-75
2020/12/06 10:41:47;;;;;;;11.15;6.78;;;5.20;99.90;;;;;;4970954;28;20030;-75
2020/12/06 10:44:13;;;;;;;9.30;6.00;;;5.30;99.90;;;;;;4970637;28;20050;-75
2020/12/06 10:46:38;;;;;;;11.45;6.03;;;5.30;99.90;;;;;;4970272;28;20062;-75
2020/12/06 10:49:04;;;;;;;8.25;5.85;;;5.40;99.90;;;;;;4986269;28;20109;-75
2020/12/06 10:51:30;;;;;;;11.15;6.65;;;5.50;99.90;;;;;;4970743;28;20394;-75
2020/12/06 10:53:55;;;;;;;9.82;6.38;;;5.50;99.90;;;;;;4971248;28;20545;-75
2020/12/06 10:56:21;;;;;;;8.02;5.22;;;5.70;99.90;;;;;;4985630;28;20039;-75
2020/12/06 10:58:48;;;;;;;14.10;5.50;;;5.80;99.90;;;;;;4985812;28;20023;-74
2020/12/06 11:01:14;;;;;;;11.93;5.38;;;5.90;99.90;;;;;;4969679;28;20076;-74
2020/12/06 11:03:40;;;;;;;10.52;4.75;;;5.90;99.90;;;;;;4968912;28;20163;-75
2020/12/06 11:06:05;;;;;;;9.73;5.13;;;5.90;99.90;;;;;;4969803;28;20023;-73
2020/12/06 11:08:31;;;;;;;11.32;4.60;;;5.90;99.90;;;;;;4970832;28;20031;-75
2020/12/06 11:10:57;;;;;;;9.15;4.25;;;6.00;99.90;;;;;;4982258;28;20091;-75
2020/12/06 11:13:22;;;;;;;6.53;4.20;;;6.00;99.90;;;;;;4966231;28;20023;-75
2020/12/06 11:15:48;;;;;;;6.18;4.03;;;5.90;99.90;;;;;;4949107;28;20039;-73
2020/12/06 11:18:13;;;;;;;5.97;4.25;;;5.90;99.90;;;;;;4951523;29;20090;-75
2020/12/06 11:20:39;;;;;;;7.03;4.00;;;5.90;99.90;;;;;;4951125;29;20067;-75
2020/12/06 11:23:05;;;;;;;5.70;4.00;;;6.00;99.90;;;;;;4978304;28;20029;-75
2020/12/06 11:25:31;;;;;;;7.43;4.95;;;6.00;99.90;;;;;;4966081;28;20029;-75
2020/12/06 11:27:56;;;;;;;7.07;5.00;;;5.90;99.90;;;;;;4948706;28;20027;-75
2020/12/06 11:30:22;;;;;;;6.40;4.72;;;5.90;99.90;;;;;;4949815;28;20074;-75
2020/12/06 11:32:48;;;;;;;6.10;4.20;;;5.90;99.90;;;;;;4950686;28;20030;-75
2020/12/06 11:35:14;;;;;;;7.25;4.50;;;6.10;99.90;;;;;;4949909;28;20027;-75
2020/12/06 11:37:39;;;;;;;7.55;4.43;;;6.30;99.90;;;;;;4950203;28;20023;-74
2020/12/06 11:40:05;;;;;;;5.97;4.13;;;6.30;99.90;;;;;;4954864;28;20466;-75
2020/12/06 11:42:33;;;;;;;7.22;4.63;;;6.30;99.90;;;;;;4969832;28;20034;-75
2020/12/06 11:44:59;;;;;;;9.15;5.50;;;6.30;99.90;;;;;;4952352;28;20037;-74
2020/12/06 11:47:25;;;;;;;9.52;5.53;;;6.30;99.90;;;;;;4950312;28;20023;-75
2020/12/06 11:49:50;;;;;;;7.90;4.82;;;6.20;99.90;;;;;;4964589;28;20019;-75
2020/12/06 11:52:16;;;;;;;6.57;4.97;;;6.20;99.90;;;;;;4967623;28;20015;-74
2020/12/06 11:54:42;;;;;;;9.50;5.13;;;6.30;99.90;;;;;;4969203;28;20525;-75
2020/12/06 11:57:07;;;;;;;6.63;4.53;;;6.30;99.90;;;;;;4969579;28;20073;-75
2020/12/06 11:59:33;;;;;;;6.22;4.60;;;6.30;99.90;;;;;;4969696;28;20019;-75
2020/12/06 12:01:59;;;;;;;10.45;5.55;;;6.40;99.90;;;;;;4955044;28;20023;-74
2020/12/06 12:04:24;;;;;;;9.77;6.03;;;6.40;99.90;;;;;;4951675;28;20431;-74
2020/12/06 12:06:50;;;;;;;6.68;5.28;;;6.30;99.90;;;;;;4984143;28;20390;-75
2020/12/06 12:09:16;;;;;;;7.20;5.15;;;6.30;99.90;;;;;;4969339;28;20037;-75
2020/12/06 12:11:42;;;;;;;7.45;4.85;;;6.30;99.90;;;;;;4969105;28;20038;-75
2020/12/06 12:14:07;;;;;;;7.63;5.47;;;6.30;99.90;;;;;;4968608;28;20777;-74
2020/12/06 12:16:33;;;;;;;8.20;5.72;;;6.40;99.90;;;;;;4969202;28;20034;-75
2020/12/06 12:19:08;;;;;;;7.30;5.35;;;6.30;99.90;;;;;;4968911;28;20027;-75
2020/12/06 12:21:33;;;;;;;9.07;5.68;;;6.20;99.90;;;;;;4969126;28;20023;-73
2020/12/06 12:24:00;;;;;;;8.05;4.82;;;6.10;99.90;;;;;;4968498;28;20037;-74
2020/12/06 12:26:25;;;;;;;8.00;5.72;;;6.10;99.90;;;;;;4968073;28;20490;-74
2020/12/06 12:28:51;;;;;;;8.07;5.30;;;6.10;99.90;;;;;;4968342;28;20110;-75
2020/12/06 12:31:17;;;;;;;20.25;11.10;;;6.00;99.90;;;;;;4969053;28;20030;-74
2020/12/06 12:33:43;;;;;;;8.57;6.25;;;6.00;99.90;;;;;;4969663;28;20026;-74
2020/12/06 12:36:08;;;;;;;8.85;5.50;;;6.00;99.90;;;;;;4968131;28;20395;-74
2020/12/06 12:38:34;;;;;;;10.93;6.65;;;6.00;99.90;;;;;;4983637;28;20510;-75
2020/12/06 12:40:59;;;;;;;11.15;6.95;;;6.00;99.90;;;;;;4968790;28;20037;-74